Terminal Aerodrome Forecast
Issued by NWS Shreveport, LA

Home | Current Version | Previous Version | Text Only | Print | Product List | Glossary On
Versions: 1 2 3 4 5 6 7 8 9 10 11 12 13 14 15
597
FTUS44 KSHV 261728 CCB
TAFTXK
TAF COR
KTXK 261728Z 2617/2718 15011KT P6SM FEW040 BKN070
     FM270000 14006KT P6SM VCTS SCT030 BKN050CB
     FM270300 12006KT 3SM TSRA BR SCT015 BKN030CB
     FM271000 12004KT 5SM -RA BR VCTS OVC025CB=

USA.gov is the U.S. government's official web portal to all federal, state and local government web resources and services.